createdAt,value
2019-04-30T00:02:08.307Z,73.09
2019-04-30T00:04:45.230Z,73.11
2019-04-30T00:07:19.175Z,73.09
2019-04-30T00:09:53.897Z,73.06
2019-04-30T00:12:30.855Z,73.09
2019-04-30T00:15:11.040Z,73.09
2019-04-30T00:17:53.006Z,73.24
2019-04-30T00:20:37.199Z,73.32
2019-04-30T00:23:11.745Z,73.36
2019-04-30T00:25:45.965Z,73.38
2019-04-30T00:28:18.622Z,73.41
2019-04-30T00:30:51.016Z,73.39
2019-04-30T00:33:27.498Z,73.41
2019-04-30T00:36:00.287Z,73.45
2019-04-30T00:38:36.077Z,73.61
2019-04-30T00:41:10.844Z,73.65
2019-04-30T00:43:49.671Z,73.72
2019-04-30T00:46:28.765Z,73.84
2019-04-30T00:49:09.302Z,74.16
2019-04-30T00:51:49.865Z,74.22
2019-04-30T00:54:30.514Z,74.30
2019-04-30T00:57:07.379Z,74.39
2019-04-30T00:59:44.618Z,74.45
2019-04-30T01:02:35.648Z,74.47
2019-04-30T01:05:11.869Z,74.53
2019-04-30T01:07:48.696Z,74.63
2019-04-30T01:10:28.293Z,74.68
2019-04-30T01:13:08.020Z,74.80
2019-04-30T01:15:48.954Z,74.90
2019-04-30T01:18:28.556Z,74.95
2019-04-30T01:21:09.009Z,75.03
2019-04-30T01:23:51.739Z,75.04
2019-04-30T01:26:30.950Z,75.08
2019-04-30T01:29:04.132Z,75.18
2019-04-30T01:31:40.668Z,75.25
2019-04-30T01:34:14.111Z,75.36
2019-04-30T01:36:50.731Z,75.56
2019-04-30T01:39:28.448Z,75.97
2019-04-30T01:42:07.885Z,76.22
2019-04-30T01:44:50.377Z,76.48
2019-04-30T01:47:27.802Z,76.94
2019-04-30T01:50:04.906Z,77.07
2019-04-30T01:52:43.469Z,77.19
2019-04-30T01:55:16.886Z,77.32
2019-04-30T01:58:02.454Z,77.39
2019-04-30T02:00:39.975Z,77.56
2019-04-30T02:03:12.588Z,77.50
2019-04-30T02:05:45.404Z,77.69
2019-04-30T02:08:19.512Z,77.61
2019-04-30T02:10:52.205Z,77.59
2019-04-30T02:13:25.092Z,77.50
2019-04-30T02:15:59.279Z,77.43
2019-04-30T02:18:31.974Z,77.38
2019-04-30T02:21:05.649Z,77.32
2019-04-30T02:23:39.250Z,77.32
2019-04-30T02:26:12.591Z,77.24
2019-04-30T02:28:46.265Z,77.20
2019-04-30T02:31:22.311Z,77.16
2019-04-30T02:34:09.996Z,77.18
2019-04-30T02:36:51.389Z,77.27
2019-04-30T02:39:23.964Z,77.36
2019-04-30T02:41:59.743Z,77.48
2019-04-30T02:44:33.078Z,77.50
2019-04-30T02:47:05.934Z,77.47
2019-04-30T02:49:39.829Z,77.53
2019-04-30T02:52:13.014Z,77.50
2019-04-30T02:54:46.239Z,77.49
2019-04-30T02:57:20.431Z,77.44
2019-04-30T03:00:06.476Z,77.39
2019-04-30T03:02:40.136Z,77.32
2019-04-30T03:05:14.113Z,77.31
2019-04-30T03:07:46.855Z,77.30
2019-04-30T03:10:19.964Z,77.44
2019-04-30T03:12:52.931Z,77.47
2019-04-30T03:15:29.587Z,77.50
2019-04-30T03:18:09.864Z,77.44
2019-04-30T03:20:51.333Z,77.40
2019-04-30T03:23:23.835Z,77.35
2019-04-30T03:25:56.879Z,77.34
2019-04-30T03:28:30.105Z,77.34
2019-04-30T03:31:04.537Z,77.35
2019-04-30T03:33:42.399Z,77.44
2019-04-30T03:36:15.748Z,77.54
2019-04-30T03:38:50.169Z,77.58
2019-04-30T03:41:23.254Z,77.56
2019-04-30T03:43:56.006Z,77.54
2019-04-30T03:46:29.826Z,77.47
2019-04-30T03:49:02.700Z,77.43
2019-04-30T03:51:35.232Z,77.44
2019-04-30T03:54:10.010Z,77.50
2019-04-30T03:56:43.763Z,77.61
2019-04-30T03:59:16.470Z,77.69
2019-04-30T04:02:02.761Z,77.79
2019-04-30T04:04:43.459Z,77.89
2019-04-30T04:07:36.007Z,77.91
2019-04-30T04:10:25.987Z,77.80
2019-04-30T04:12:59.688Z,77.81
2019-04-30T04:15:32.955Z,77.59
2019-04-30T04:18:05.591Z,77.54
2019-04-30T04:20:39.557Z,77.69
2019-04-30T04:23:15.992Z,77.79
2019-04-30T04:25:49.801Z,77.90
2019-04-30T04:28:22.826Z,77.99
2019-04-30T04:30:55.785Z,78.11
2019-04-30T04:33:29.688Z,78.24
2019-04-30T04:36:02.372Z,78.30
2019-04-30T04:38:35.736Z,78.43
2019-04-30T04:41:10.301Z,78.46
2019-04-30T04:43:43.345Z,78.49
2019-04-30T04:46:16.186Z,78.46
2019-04-30T04:48:50.413Z,78.44
2019-04-30T04:51:34.482Z,78.66
2019-04-30T04:54:11.590Z,78.74
2019-04-30T04:56:44.335Z,78.71
2019-04-30T04:59:19.957Z,78.67
2019-04-30T05:01:52.879Z,78.61
2019-04-30T05:04:26.554Z,78.49
2019-04-30T05:07:00.038Z,78.42
2019-04-30T05:09:32.716Z,78.29
2019-04-30T05:12:08.540Z,78.21
2019-04-30T05:14:41.835Z,78.07
2019-04-30T05:17:15.112Z,77.91
2019-04-30T05:19:48.726Z,77.91
2019-04-30T05:22:22.777Z,77.89
2019-04-30T05:24:56.078Z,77.79
2019-04-30T05:27:30.327Z,77.79
2019-04-30T05:30:05.514Z,77.87
2019-04-30T05:32:39.054Z,77.94
2019-04-30T05:35:12.464Z,77.86
2019-04-30T05:37:44.977Z,77.81
2019-04-30T05:40:18.832Z,77.71
2019-04-30T05:42:51.615Z,77.64
2019-04-30T05:45:25.076Z,77.51
2019-04-30T05:47:58.744Z,77.41
2019-04-30T05:50:32.286Z,77.19
2019-04-30T05:53:05.764Z,77.30
2019-04-30T05:55:39.523Z,77.09
2019-04-30T05:58:13.650Z,76.71
2019-04-30T06:00:46.946Z,75.97
2019-04-30T06:03:29.927Z,75.34
2019-04-30T06:06:05.336Z,75.15
2019-04-30T06:08:49.158Z,75.10
2019-04-30T06:11:29.246Z,74.86
2019-04-30T06:14:08.749Z,74.72
2019-04-30T06:16:41.440Z,74.27
2019-04-30T06:19:15.604Z,74.21
2019-04-30T06:21:49.159Z,73.44
2019-04-30T06:24:21.736Z,72.81
2019-04-30T06:26:54.439Z,71.87
2019-04-30T06:29:29.021Z,71.25
2019-04-30T06:32:03.579Z,71.14
2019-04-30T06:34:36.371Z,71.29
2019-04-30T06:37:09.717Z,71.00
2019-04-30T06:39:43.133Z,71.01
2019-04-30T06:42:16.169Z,70.61
2019-04-30T06:44:49.668Z,70.42
2019-04-30T06:47:32.423Z,70.56
2019-04-30T06:50:09.284Z,70.65
2019-04-30T06:52:53.991Z,70.45
2019-04-30T06:55:35.750Z,70.54
2019-04-30T06:58:15.075Z,70.47
2019-04-30T07:00:49.756Z,70.29
2019-04-30T07:03:25.698Z,70.34
2019-04-30T07:05:59.288Z,70.22
2019-04-30T07:08:42.452Z,70.10
2019-04-30T07:11:23.843Z,69.93
2019-04-30T07:13:56.327Z,69.40
2019-04-30T07:16:29.948Z,69.17
2019-04-30T07:19:02.630Z,68.80
2019-04-30T07:21:36.592Z,68.01
2019-04-30T07:24:15.019Z,67.39
2019-04-30T07:26:49.050Z,67.05
2019-04-30T07:29:22.473Z,66.50
2019-04-30T07:31:55.255Z,66.04
2019-04-30T07:34:31.710Z,64.99
2019-04-30T07:37:20.526Z,65.02
2019-04-30T07:39:59.226Z,64.77
2019-04-30T07:42:38.221Z,64.00
2019-04-30T07:45:18.791Z,63.43
2019-04-30T07:47:53.594Z,63.25
2019-04-30T07:50:30.518Z,63.03
2019-04-30T07:53:06.402Z,62.88
2019-04-30T07:55:39.907Z,62.61
2019-04-30T07:58:13.679Z,62.08
2019-04-30T08:00:46.384Z,62.28
2019-04-30T08:03:38.737Z,61.11
2019-04-30T08:06:12.783Z,60.64
2019-04-30T08:08:46.167Z,60.59
2019-04-30T08:11:25.653Z,61.04
2019-04-30T08:14:00.356Z,61.44
2019-04-30T08:16:33.245Z,61.67
2019-04-30T08:19:09.145Z,60.52
2019-04-30T08:21:42.543Z,59.71
2019-04-30T08:24:15.148Z,59.62
2019-04-30T08:29:11.757Z,59.79
2019-04-30T08:31:45.899Z,59.65
2019-04-30T08:34:25.518Z,58.72
2019-04-30T08:37:12.830Z,57.11
2019-04-30T08:40:03.451Z,57.04
2019-04-30T08:42:38.411Z,57.94
2019-04-30T08:45:20.600Z,57.99
2019-04-30T08:47:55.836Z,57.48
2019-04-30T08:50:32.210Z,57.59
2019-04-30T08:53:05.713Z,57.46
2019-04-30T08:55:39.111Z,56.42
2019-04-30T08:58:15.125Z,56.78
2019-04-30T09:00:49.251Z,56.65
2019-04-30T09:03:22.286Z,56.07
2019-04-30T09:06:04.239Z,55.76
2019-04-30T09:08:39.921Z,56.29
2019-04-30T09:11:25.292Z,56.23
2019-04-30T09:14:03.001Z,56.58
2019-04-30T09:16:35.998Z,55.30
2019-04-30T09:19:09.754Z,55.41
2019-04-30T09:21:44.331Z,55.64
2019-04-30T09:24:19.077Z,54.69
2019-04-30T09:26:51.944Z,54.77
2019-04-30T09:29:25.190Z,54.60
2019-04-30T09:31:59.393Z,54.47
2019-04-30T09:34:33.323Z,54.04
2019-04-30T09:37:05.931Z,53.90
2019-04-30T09:39:39.578Z,53.33
2019-04-30T09:42:12.117Z,52.88
2019-04-30T09:44:44.746Z,52.17
2019-04-30T09:47:20.122Z,52.65
2019-04-30T09:49:54.331Z,51.96
2019-04-30T09:52:30.220Z,51.50
2019-04-30T09:55:04.974Z,51.64
2019-04-30T09:57:39.027Z,51.45
2019-04-30T10:00:14.526Z,51.35
2019-04-30T10:02:48.906Z,50.92
2019-04-30T10:05:21.740Z,50.45
2019-04-30T10:07:56.014Z,49.77
2019-04-30T10:10:36.603Z,48.57
2019-04-30T10:13:11.911Z,48.51
2019-04-30T10:16:03.931Z,48.26
2019-04-30T10:18:39.131Z,48.28
2019-04-30T10:21:12.644Z,46.98
2019-04-30T10:23:47.035Z,47.78
2019-04-30T10:26:20.603Z,48.15
2019-04-30T10:28:58.391Z,47.24
2019-04-30T10:31:33.399Z,46.38
2019-04-30T10:34:06.014Z,46.03
2019-04-30T10:36:41.413Z,45.76
2019-04-30T10:39:15.725Z,44.75
2019-04-30T10:41:49.797Z,43.77
2019-04-30T10:44:23.404Z,43.36
2019-04-30T10:46:56.246Z,42.26
2019-04-30T10:49:29.552Z,41.27
2019-04-30T10:52:03.344Z,41.43
2019-04-30T10:54:36.301Z,41.14
2019-04-30T10:57:09.031Z,41.84
2019-04-30T10:59:42.314Z,40.32
2019-04-30T11:02:18.555Z,40.24
2019-04-30T11:04:52.311Z,39.93
2019-04-30T11:07:25.575Z,39.34
2019-04-30T11:09:59.322Z,38.24
2019-04-30T11:12:32.074Z,39.40
2019-04-30T11:15:07.316Z,37.29
2019-04-30T11:17:43.212Z,38.10
2019-04-30T11:20:22.272Z,36.59
2019-04-30T11:22:56.655Z,36.45
2019-04-30T11:25:32.879Z,36.96
2019-04-30T11:28:07.133Z,36.63
2019-04-30T11:30:46.055Z,36.55
2019-04-30T11:33:19.164Z,36.48
2019-04-30T11:36:02.029Z,35.31
2019-04-30T11:38:38.899Z,34.51
2019-04-30T11:41:10.745Z,35.29
2019-04-30T11:43:44.382Z,34.63
2019-04-30T11:47:23.410Z,34.75
2019-04-30T11:50:12.453Z,36.40
2019-04-30T11:52:46.380Z,34.36
2019-04-30T11:55:19.853Z,33.17
2019-04-30T11:57:54.245Z,32.70
2019-04-30T12:00:35.770Z,32.04
2019-04-30T12:03:11.495Z,32.10
2019-04-30T12:05:44.452Z,30.96
2019-04-30T12:08:26.283Z,31.21
2019-04-30T12:11:07.131Z,31.77
2019-04-30T12:13:49.941Z,31.87
2019-04-30T12:16:24.406Z,30.83
2019-04-30T12:19:00.684Z,29.45
2019-04-30T12:21:33.420Z,29.01
2019-04-30T12:24:06.503Z,29.53
2019-04-30T12:26:39.970Z,29.79
2019-04-30T12:29:13.448Z,29.22
2019-04-30T12:31:47.603Z,29.72
2019-04-30T12:34:21.749Z,30.36
2019-04-30T12:36:54.332Z,30.63
2019-04-30T12:39:35.416Z,29.34
2019-04-30T12:42:11.803Z,29.71
2019-04-30T12:44:45.251Z,29.06
2019-04-30T12:47:21.738Z,29.12
2019-04-30T12:50:09.527Z,28.73
2019-04-30T12:53:03.257Z,28.19
2019-04-30T12:56:00.419Z,28.07
2019-04-30T12:58:34.451Z,29.18
2019-04-30T13:01:08.959Z,29.39
2019-04-30T13:03:43.008Z,29.62
2019-04-30T13:06:17.931Z,29.87
2019-04-30T13:08:54.779Z,28.78
2019-04-30T13:11:30.608Z,30.07
2019-04-30T13:14:04.961Z,30.42
2019-04-30T13:16:39.246Z,29.09
2019-04-30T13:19:11.879Z,29.68
2019-04-30T13:21:44.526Z,29.59
2019-04-30T13:24:17.533Z,29.51
2019-04-30T13:26:50.850Z,28.87
2019-04-30T13:29:32.378Z,28.87
2019-04-30T13:32:08.756Z,29.07
2019-04-30T13:34:49.322Z,28.87
2019-04-30T13:37:29.355Z,29.22
2019-04-30T13:40:14.556Z,29.19
2019-04-30T13:42:49.588Z,29.81
2019-04-30T13:45:23.559Z,29.68
2019-04-30T13:47:58.883Z,27.84
2019-04-30T13:50:32.648Z,29.18
2019-04-30T13:53:05.730Z,29.17
2019-04-30T13:55:45.640Z,28.80
2019-04-30T13:58:19.584Z,28.64
2019-04-30T14:00:53.613Z,28.73
2019-04-30T14:03:39.913Z,28.90
2019-04-30T14:06:22.976Z,29.35
2019-04-30T14:09:03.505Z,30.32
2019-04-30T14:11:36.089Z,30.95
2019-04-30T14:14:08.727Z,31.24
2019-04-30T14:16:43.845Z,30.93
2019-04-30T14:19:19.563Z,31.04
2019-04-30T14:21:52.046Z,30.87
2019-04-30T14:24:26.612Z,30.68
2019-04-30T14:26:59.169Z,30.53
2019-04-30T14:29:31.817Z,30.64
2019-04-30T14:32:04.988Z,31.58
2019-04-30T14:34:39.546Z,31.31
2019-04-30T14:37:13.176Z,30.23
2019-04-30T14:39:48.647Z,29.38
2019-04-30T14:42:24.253Z,30.12
2019-04-30T14:45:12.798Z,30.16
2019-04-30T14:48:00.519Z,30.46
2019-04-30T14:50:34.725Z,30.72
2019-04-30T14:53:24.132Z,30.85
2019-04-30T14:56:12.660Z,30.35
2019-04-30T14:59:06.141Z,30.34
2019-04-30T15:01:49.094Z,30.14
2019-04-30T15:04:24.205Z,30.11
2019-04-30T15:06:58.461Z,30.69
2019-04-30T15:09:31.464Z,31.15
2019-04-30T15:12:04.616Z,31.19
2019-04-30T15:14:38.797Z,30.95
2019-04-30T15:17:15.215Z,29.87
2019-04-30T15:19:49.361Z,29.64
2019-04-30T15:22:30.643Z,30.21
2019-04-30T15:25:04.507Z,30.74
2019-04-30T15:27:45.175Z,31.47
2019-04-30T15:30:24.394Z,32.73
2019-04-30T15:33:10.866Z,34.08
2019-04-30T15:35:44.742Z,34.82
2019-04-30T15:38:56.983Z,34.68
2019-04-30T15:41:32.678Z,35.74
2019-04-30T15:44:07.613Z,35.19
2019-04-30T15:46:44.154Z,34.99
2019-04-30T15:49:18.395Z,34.77
2019-04-30T15:51:50.962Z,35.23
2019-04-30T15:54:25.689Z,35.77
2019-04-30T15:57:00.467Z,36.64
2019-04-30T15:59:47.821Z,37.35
2019-04-30T16:02:53.705Z,37.07
2019-04-30T16:05:36.212Z,37.49
2019-04-30T16:08:29.124Z,38.00
2019-04-30T16:11:23.221Z,38.88
2019-04-30T16:14:15.260Z,39.67
2019-04-30T16:17:03.498Z,39.75
2019-04-30T16:19:36.072Z,39.87
2019-04-30T16:22:10.251Z,40.11
2019-04-30T16:24:43.852Z,40.13
2019-04-30T16:27:19.181Z,40.07
2019-04-30T16:29:52.953Z,40.48
2019-04-30T16:32:26.270Z,40.02
2019-04-30T16:34:59.411Z,40.56
2019-04-30T16:37:32.301Z,40.91
2019-04-30T16:40:05.070Z,41.21
2019-04-30T16:42:38.986Z,41.37
2019-04-30T16:45:13.343Z,41.54
2019-04-30T16:47:46.130Z,42.46
2019-04-30T16:50:19.167Z,42.30
2019-04-30T16:52:52.632Z,42.68
2019-04-30T16:55:26.073Z,43.08
2019-04-30T16:58:01.533Z,43.03
2019-04-30T17:00:36.629Z,43.17
2019-04-30T17:03:23.671Z,43.17
2019-04-30T17:06:05.896Z,43.43
2019-04-30T17:08:45.068Z,43.45
2019-04-30T17:11:30.252Z,43.66
2019-04-30T17:14:05.882Z,43.84
2019-04-30T17:16:42.750Z,44.41
2019-04-30T17:19:18.981Z,44.74
2019-04-30T17:21:52.984Z,44.93
2019-04-30T17:24:30.097Z,45.27
2019-04-30T17:27:16.503Z,45.84
2019-04-30T17:29:57.661Z,45.78
2019-04-30T17:32:30.495Z,45.85
2019-04-30T17:35:08.911Z,45.90
2019-04-30T17:37:44.641Z,46.14
2019-04-30T17:40:19.262Z,46.38
2019-04-30T17:42:55.060Z,46.36
2019-04-30T17:45:29.840Z,46.63
2019-04-30T17:48:03.301Z,46.69
2019-04-30T17:50:36.515Z,47.03
2019-04-30T17:53:09.445Z,47.30
2019-04-30T17:55:43.507Z,47.76
2019-04-30T17:58:15.549Z,48.34
2019-04-30T18:00:53.974Z,48.97
2019-04-30T18:03:28.948Z,49.56
2019-04-30T18:06:02.556Z,50.16
2019-04-30T18:08:39.812Z,50.38
2019-04-30T18:11:13.608Z,50.83
2019-04-30T18:13:51.185Z,51.03
2019-04-30T18:16:23.765Z,51.46
2019-04-30T18:19:15.108Z,51.83
2019-04-30T18:21:54.719Z,52.14
2019-04-30T18:24:46.717Z,52.53
2019-04-30T18:27:25.415Z,52.50
2019-04-30T18:30:00.425Z,52.55
2019-04-30T18:32:42.844Z,52.98
2019-04-30T18:35:18.641Z,53.44
2019-04-30T18:37:55.969Z,53.84
2019-04-30T18:40:33.157Z,54.31
2019-04-30T18:43:07.402Z,54.68
2019-04-30T18:45:42.124Z,55.08
2019-04-30T18:48:14.512Z,55.44
2019-04-30T18:50:51.776Z,55.78
2019-04-30T18:53:28.469Z,56.20
2019-04-30T18:56:04.250Z,56.32
2019-04-30T18:58:42.937Z,56.44
2019-04-30T19:01:17.554Z,56.70
2019-04-30T19:03:51.752Z,56.98
2019-04-30T19:06:26.459Z,57.13
2019-04-30T19:09:05.169Z,57.35
2019-04-30T19:12:11.135Z,57.53
2019-04-30T19:15:07.919Z,57.72
2019-04-30T19:18:12.256Z,57.76
2019-04-30T19:20:49.645Z,57.93
2019-04-30T19:23:23.067Z,58.14
2019-04-30T19:25:56.117Z,58.28
2019-04-30T19:28:30.915Z,58.45
2019-04-30T19:31:09.224Z,58.71
2019-04-30T19:33:45.930Z,58.84
2019-04-30T19:36:21.013Z,59.00
2019-04-30T19:38:59.887Z,59.17
2019-04-30T19:41:32.868Z,59.18
2019-04-30T19:44:05.904Z,59.25
2019-04-30T19:46:39.618Z,59.38
2019-04-30T19:49:14.647Z,59.44
2019-04-30T19:51:49.527Z,59.46
2019-04-30T19:54:28.932Z,59.59
2019-04-30T19:57:03.551Z,59.91
2019-04-30T19:59:41.134Z,60.13
2019-04-30T20:02:29.481Z,60.32
2019-04-30T20:05:08.995Z,60.58
2019-04-30T20:07:55.216Z,60.57
2019-04-30T20:10:30.650Z,60.75
2019-04-30T20:13:05.684Z,60.93
2019-04-30T20:15:40.435Z,61.06
2019-04-30T20:18:14.680Z,61.19
2019-04-30T20:20:55.690Z,61.36
2019-04-30T20:23:29.992Z,61.56
2019-04-30T20:26:02.742Z,61.75
2019-04-30T20:28:41.407Z,61.89
2019-04-30T20:31:19.019Z,62.03
2019-04-30T20:33:59.128Z,62.20
2019-04-30T20:36:36.190Z,62.40
2019-04-30T20:39:20.186Z,62.58
2019-04-30T20:41:54.341Z,62.72
2019-04-30T20:44:36.411Z,62.91
2019-04-30T20:47:09.697Z,63.11
2019-04-30T20:49:43.614Z,63.31
2019-04-30T20:52:18.981Z,63.56
2019-04-30T20:55:10.816Z,63.86
2019-04-30T20:57:49.416Z,64.14
2019-04-30T21:00:25.371Z,64.33
2019-04-30T21:02:59.898Z,64.56
2019-04-30T21:05:34.978Z,64.75
2019-04-30T21:08:10.189Z,64.83
2019-04-30T21:10:43.575Z,64.91
2019-04-30T21:13:16.716Z,65.01
2019-04-30T21:15:56.414Z,65.12
2019-04-30T21:18:32.524Z,65.21
2019-04-30T21:21:05.695Z,65.27
2019-04-30T21:23:39.465Z,65.35
2019-04-30T21:26:14.647Z,65.47
2019-04-30T21:28:49.619Z,65.64
2019-04-30T21:31:27.826Z,65.77
2019-04-30T21:34:13.835Z,65.89
2019-04-30T21:36:49.199Z,66.10
2019-04-30T21:39:23.821Z,66.24
2019-04-30T21:41:59.457Z,66.13
2019-04-30T21:44:33.516Z,66.26
2019-04-30T21:47:07.319Z,66.34
2019-04-30T21:49:40.527Z,66.23
2019-04-30T21:52:13.180Z,66.37
2019-04-30T21:54:46.326Z,66.56
2019-04-30T21:57:19.620Z,66.71
2019-04-30T21:59:55.428Z,66.87
2019-04-30T22:02:28.818Z,66.97
2019-04-30T22:05:03.564Z,67.09
2019-04-30T22:07:36.240Z,67.11
2019-04-30T22:10:09.183Z,66.85
2019-04-30T22:12:42.312Z,66.85
2019-04-30T22:15:17.492Z,67.02
2019-04-30T22:17:50.198Z,67.04
2019-04-30T22:20:23.323Z,67.00
2019-04-30T22:22:58.868Z,67.11
2019-04-30T22:25:31.487Z,67.18
2019-04-30T22:28:04.282Z,67.25
2019-04-30T22:30:38.268Z,67.41
2019-04-30T22:33:11.785Z,67.52
2019-04-30T22:35:59.348Z,67.81
2019-04-30T22:38:39.047Z,68.16
2019-04-30T22:41:12.697Z,68.42
2019-04-30T22:43:46.117Z,68.60
2019-04-30T22:46:19.704Z,68.73
2019-04-30T22:48:54.058Z,68.97
2019-04-30T22:51:26.904Z,68.84
2019-04-30T22:53:59.530Z,68.56
2019-04-30T22:56:32.060Z,68.78
2019-04-30T22:59:07.700Z,68.71
2019-04-30T23:01:46.798Z,68.98
2019-04-30T23:04:33.403Z,69.23
2019-04-30T23:07:06.197Z,69.25
2019-04-30T23:09:39.276Z,69.06
2019-04-30T23:12:12.581Z,68.70
2019-04-30T23:14:47.069Z,68.66
2019-04-30T23:17:21.289Z,68.87
2019-04-30T23:19:55.414Z,69.04
2019-04-30T23:22:28.460Z,69.10
2019-04-30T23:25:01.664Z,69.15
2019-04-30T23:27:37.578Z,69.01
2019-04-30T23:30:10.359Z,68.99
2019-04-30T23:32:43.515Z,69.24
2019-04-30T23:35:16.688Z,69.40
2019-04-30T23:37:49.995Z,69.49
2019-04-30T23:40:27.228Z,69.67
2019-04-30T23:43:00.767Z,69.91
2019-04-30T23:45:33.319Z,70.13
2019-04-30T23:48:06.248Z,70.20
2019-04-30T23:50:38.732Z,70.27
2019-04-30T23:53:11.959Z,70.48
2019-04-30T23:55:45.047Z,70.36
2019-04-30T23:58:17.664Z,69.90
